Time;durP1;ratioP1;P1;durP2;ratioP2;P2;SDS_P1;SDS_P2;PMS_P1;PMS_P2;Temp;Humidity;BMP_temperature;BMP_pressure;BME280_temperature;BME280_humidity;BME280_pressure;Samples;Min_cycle;Max_cycle;Signal;HPM_P1;HPM_P2
2021/04/16 00:00:15;;;;;;;2.00;0.82;;;;;;;0.47;63.15;103091.78;4900315;29;20039;-79
2021/04/16 00:02:42;;;;;;;5.50;1.15;;;;;;;0.42;63.65;103080.56;4901074;29;20032;-77
2021/04/16 00:05:08;;;;;;;3.08;0.95;;;;;;;0.39;63.84;103083.34;4897915;29;20104;-77
2021/04/16 00:07:34;;;;;;;3.35;1.10;;;;;;;0.34;63.67;103081.91;4869721;29;20139;-77
2021/04/16 00:09:59;;;;;;;3.30;1.02;;;;;;;0.32;63.87;103083.75;4896763;29;20032;-77
2021/04/16 00:12:32;;;;;;;3.05;0.90;;;;;;;0.33;64.12;103086.34;4883746;29;20495;-77
2021/04/16 00:14:58;;;;;;;2.67;1.10;;;;;;;0.18;63.96;103060.63;4884884;29;20036;-77
2021/04/16 00:17:24;;;;;;;2.85;0.65;;;;;;;0.05;64.30;103048.91;4901721;29;20043;-77
2021/04/16 00:19:49;;;;;;;4.10;1.13;;;;;;;0.14;64.54;103086.38;4899847;29;20047;-76
2021/04/16 00:22:15;;;;;;;4.07;1.10;;;;;;;0.08;64.37;103085.81;4900425;29;20048;-77
2021/04/16 00:24:40;;;;;;;3.67;1.23;;;;;;;-0.08;65.17;103059.25;4884054;29;20036;-77
2021/04/16 00:27:06;;;;;;;4.07;1.10;;;;;;;-0.45;65.17;103018.69;4883952;29;20486;-77
2021/04/16 00:29:32;;;;;;;5.03;1.20;;;;;;;-0.12;65.61;103086.78;4884401;29;20427;-77
2021/04/16 00:31:58;;;;;;;3.47;1.00;;;;;;;-0.18;65.63;103084.44;4883077;29;20029;-77
2021/04/16 00:34:25;;;;;;;2.28;1.30;;;;;;;-0.22;65.83;103083.72;4900316;29;20039;-77
2021/04/16 00:36:53;;;;;;;2.90;1.10;;;;;;;-0.27;65.63;103083.91;4899668;29;20063;-76
2021/04/16 00:39:22;;;;;;;2.65;0.90;;;;;;;-0.40;65.90;103074.84;4899565;29;20411;-77
2021/04/16 00:41:51;;;;;;;2.90;1.10;;;;;;;-0.38;66.13;103088.88;4901910;29;20044;-77
2021/04/16 00:44:17;;;;;;;4.97;1.30;;;;;;;-0.46;65.96;103077.81;4897886;29;20124;-77
2021/04/16 00:46:49;;;;;;;4.22;0.95;;;;;;;-0.43;66.29;103084.72;4900154;29;20056;-77
2021/04/16 00:49:28;;;;;;;2.72;1.30;;;;;;;-0.65;66.68;103061.94;4901408;29;20111;-78
2021/04/16 00:51:59;;;;;;;2.53;1.17;;;;;;;-0.56;66.60;103087.94;4900220;29;20481;-77
2021/04/16 00:54:27;;;;;;;5.97;1.20;;;;;;;-0.61;66.54;103087.28;4901205;29;20025;-77
2021/04/16 00:56:53;;;;;;;2.58;1.00;;;;;;;-1.04;66.97;103020.50;4897284;29;20633;-77
2021/04/16 00:59:26;;;;;;;2.15;1.00;;;;;;;-0.69;66.74;103086.78;4901727;29;20040;-77
2021/04/16 01:01:52;;;;;;;1.88;0.85;;;;;;;-0.76;67.17;103074.78;4897184;29;20024;-77
2021/04/16 01:04:18;;;;;;;5.05;1.33;;;;;;;-0.75;67.45;103071.22;4899566;29;20039;-77
2021/04/16 01:06:44;;;;;;;2.47;1.13;;;;;;;-0.76;67.03;103073.00;4899105;29;20059;-77
2021/04/16 01:09:10;;;;;;;3.92;1.20;;;;;;;-0.82;67.35;103054.78;4902669;29;20066;-77
2021/04/16 01:11:36;;;;;;;2.60;0.95;;;;;;;-0.67;67.37;103073.50;4919244;29;20028;-77
2021/04/16 01:14:03;;;;;;;3.72;1.17;;;;;;;-0.83;67.57;103052.19;4911072;29;20359;-77
2021/04/16 01:16:31;;;;;;;4.72;1.02;;;;;;;-0.72;67.37;103060.50;4884211;29;20058;-77
2021/04/16 01:19:00;;;;;;;3.78;1.00;;;;;;;-0.73;67.65;103062.28;4898791;29;20091;-77
2021/04/16 01:21:41;;;;;;;4.00;1.08;;;;;;;-0.63;67.46;103075.94;4899401;29;20056;-77
2021/04/16 01:24:31;;;;;;;5.18;1.02;;;;;;;-0.67;68.09;103071.69;4900197;29;20032;-77
2021/04/16 01:26:58;;;;;;;4.13;1.20;;;;;;;-0.67;67.83;103061.13;4882272;29;20366;-77
2021/04/16 01:29:27;;;;;;;2.15;0.75;;;;;;;-0.69;67.88;103070.94;4898893;29;20448;-77
2021/04/16 01:31:53;;;;;;;4.70;1.60;;;;;;;-0.73;67.93;103066.69;4882494;29;20427;-77
2021/04/16 01:34:22;;;;;;;3.20;1.13;;;;;;;-0.74;68.19;103062.34;4898281;29;20036;-78
2021/04/16 01:36:51;;;;;;;2.33;1.02;;;;;;;-0.74;68.12;103068.47;4900219;29;20044;-77
2021/04/16 01:39:20;;;;;;;5.40;1.13;;;;;;;-0.70;67.85;103069.19;4897811;29;20512;-78
2021/04/16 01:41:45;;;;;;;5.13;1.17;;;;;;;-0.68;68.12;103059.41;4907823;29;20026;-77
2021/04/16 01:44:15;;;;;;;5.10;1.13;;;;;;;-0.71;68.28;103063.06;4909320;29;20104;-77
2021/04/16 01:46:49;;;;;;;4.03;1.20;;;;;;;-0.79;68.44;103045.84;4898404;29;20055;-77
2021/04/16 01:49:15;;;;;;;3.85;1.00;;;;;;;-0.84;68.66;103039.91;4899542;29;20042;-77
2021/04/16 01:51:41;;;;;;;4.47;1.10;;;;;;;-0.77;68.50;103054.56;4900109;29;20641;-77
2021/04/16 01:54:08;;;;;;;2.30;1.20;;;;;;;-0.81;68.14;103059.13;4900287;29;20029;-77
2021/04/16 01:56:34;;;;;;;3.45;1.00;;;;;;;-0.84;68.18;103053.13;4899842;29;20092;-77
2021/04/16 01:59:01;;;;;;;5.85;0.98;;;;;;;-0.86;68.68;103057.59;4902086;29;20036;-77
2021/04/16 02:01:27;;;;;;;4.28;1.23;;;;;;;-0.91;68.52;103057.81;4884902;29;20059;-77
2021/04/16 02:03:52;;;;;;;3.65;1.10;;;;;;;-1.02;68.68;103047.75;4885900;29;20029;-77
2021/04/16 02:06:18;;;;;;;3.65;1.13;;;;;;;-0.95;69.05;103061.53;4900521;29;20028;-78
2021/04/16 02:08:44;;;;;;;5.95;1.20;;;;;;;-0.95;68.91;103059.75;4900528;29;20032;-77
2021/04/16 02:11:10;;;;;;;3.33;1.23;;;;;;;-0.93;69.18;103057.03;4896816;29;20111;-77
2021/04/16 02:13:36;;;;;;;5.00;1.05;;;;;;;-0.96;69.24;103065.09;4899782;29;20024;-77
2021/04/16 02:16:04;;;;;;;2.67;1.27;;;;;;;-0.99;68.89;103054.69;4882371;29;20041;-78
2021/04/16 02:18:31;;;;;;;3.45;1.00;;;;;;;-0.98;69.17;103061.66;4893669;29;20340;-77
2021/04/16 02:20:57;;;;;;;2.90;1.20;;;;;;;-1.10;69.34;103041.06;4866774;29;20032;-77
2021/04/16 02:23:23;;;;;;;4.07;1.40;;;;;;;-0.98;69.70;103056.38;4898087;29;20107;-78
2021/04/16 02:25:48;;;;;;;5.25;1.85;;;;;;;-0.97;69.58;103064.22;4897840;29;20071;-78
2021/04/16 02:28:14;;;;;;;5.95;1.30;;;;;;;-1.00;69.20;103055.59;4899091;29;20060;-77
2021/04/16 02:30:39;;;;;;;5.07;1.30;;;;;;;-0.93;69.48;103064.09;4899052;29;20043;-77
2021/04/16 02:33:05;;;;;;;5.63;1.40;;;;;;;-0.90;69.16;103053.38;4866955;29;20108;-77
2021/04/16 02:35:32;;;;;;;5.65;1.15;;;;;;;-0.84;69.69;103059.25;4899304;29;20074;-77
2021/04/16 02:37:58;;;;;;;4.90;1.90;;;;;;;-0.80;69.08;103057.31;4881299;29;20152;-77
2021/04/16 02:40:26;;;;;;;3.42;1.40;;;;;;;-0.74;69.09;103057.91;4880798;29;20036;-78
2021/04/16 02:42:52;;;;;;;9.85;1.88;;;;;;;-0.58;68.48;103039.56;4899202;29;20078;-78
2021/04/16 02:45:21;;;;;;;2.72;1.30;;;;;;;-0.37;68.92;103045.59;4897241;29;20021;-77
2021/04/16 02:47:47;;;;;;;3.65;1.23;;;;;;;-0.34;68.39;103026.94;4863997;29;20053;-77
2021/04/16 02:50:17;;;;;;;3.40;1.27;;;;;;;-0.27;68.45;103030.16;4876930;29;20367;-77
2021/04/16 02:52:43;;;;;;;4.07;1.45;;;;;;;-0.18;67.98;103048.25;4881326;29;20087;-77
2021/04/16 02:55:09;;;;;;;3.50;0.90;;;;;;;-0.31;68.14;103016.22;4879138;29;20460;-77
2021/04/16 02:57:35;;;;;;;3.28;1.60;;;;;;;-0.22;68.15;103024.66;4863737;29;20033;-77
2021/04/16 03:00:01;;;;;;;3.83;1.40;;;;;;;-0.10;68.61;103039.91;4876955;29;20037;-78
2021/04/16 03:02:27;;;;;;;3.33;1.30;;;;;;;-0.14;68.67;103038.38;4880411;29;20076;-77
2021/04/16 03:04:52;;;;;;;3.58;1.30;;;;;;;-0.18;68.25;103042.94;4878844;29;20029;-77
2021/04/16 03:07:17;;;;;;;2.38;1.10;;;;;;;-0.26;68.59;103037.19;4861136;29;20111;-78
2021/04/16 03:09:49;;;;;;;4.90;1.40;;;;;;;-0.31;68.70;103037.38;4880327;29;20032;-78
2021/04/16 03:12:14;;;;;;;3.78;1.30;;;;;;;-0.33;68.93;103031.34;4878249;29;20017;-78
2021/04/16 03:14:40;;;;;;;3.88;1.50;;;;;;;-0.29;68.28;103032.88;4880354;29;20029;-78
2021/04/16 03:17:05;;;;;;;5.25;1.50;;;;;;;-0.40;68.61;103018.44;4878339;29;20029;-77
2021/04/16 03:19:31;;;;;;;4.47;1.23;;;;;;;-0.37;68.39;103035.03;4875723;29;20088;-77
2021/04/16 03:21:56;;;;;;;3.65;1.17;;;;;;;-0.38;68.30;103035.97;4860694;29;20046;-77
2021/04/16 03:24:22;;;;;;;4.50;1.40;;;;;;;-0.53;68.72;103018.16;4860965;29;20033;-77
2021/04/16 03:26:48;;;;;;;4.65;1.38;;;;;;;-0.50;69.42;103039.19;4878942;29;20096;-78
2021/04/16 03:29:13;;;;;;;9.18;1.65;;;;;;;-0.56;68.87;103027.13;4862412;29;20033;-77
2021/04/16 03:31:39;;;;;;;5.35;1.38;;;;;;;-0.57;68.99;103027.19;4865087;29;20037;-77
2021/04/16 03:34:05;;;;;;;2.85;1.10;;;;;;;-0.60;69.37;103020.25;4882000;29;20045;-78
2021/04/16 03:36:31;;;;;;;4.78;1.10;;;;;;;-0.59;68.93;103027.28;4883441;29;20028;-77
2021/04/16 03:38:57;;;;;;;3.53;1.00;;;;;;;-0.57;68.99;103028.03;4866813;29;20639;-77
2021/04/16 03:41:23;;;;;;;4.35;1.15;;;;;;;-0.58;69.27;103031.63;4867864;29;20024;-78
2021/04/16 03:43:49;;;;;;;2.83;1.17;;;;;;;-0.68;69.01;103017.13;4881819;29;20444;-78
2021/04/16 03:46:15;;;;;;;6.57;1.35;;;;;;;-0.67;68.97;103026.75;4872149;29;20083;-77
2021/04/16 03:48:41;;;;;;;2.80;1.00;;;;;;;-0.71;68.78;103020.75;4883617;29;20076;-77
2021/04/16 03:51:07;;;;;;;2.85;1.00;;;;;;;-0.74;69.10;103017.41;4868227;29;20053;-77
2021/04/16 03:53:34;;;;;;;4.25;1.17;;;;;;;-0.76;69.24;103024.56;4869674;29;20044;-78
2021/04/16 03:56:00;;;;;;;5.95;1.30;;;;;;;-0.82;69.24;103024.84;4888885;29;20088;-78
2021/04/16 03:58:25;;;;;;;2.50;1.10;;;;;;;-1.05;69.12;103002.97;4865696;29;20028;-79
2021/04/16 04:00:51;;;;;;;2.40;0.95;;;;;;;-1.08;69.77;103005.75;4906853;29;20045;-78
2021/04/16 04:03:16;;;;;;;7.00;1.10;;;;;;;-1.11;69.59;103005.03;4904534;29;20404;-78
2021/04/16 04:05:42;;;;;;;4.25;1.38;;;;;;;-1.17;69.77;102989.44;4889422;29;20025;-77
2021/04/16 04:08:10;;;;;;;3.63;0.98;;;;;;;-1.04;69.88;103023.16;4883419;29;20137;-78
2021/04/16 04:10:37;;;;;;;3.30;1.20;;;;;;;-1.05;70.25;103023.25;4882445;29;20124;-78
2021/04/16 04:13:08;;;;;;;5.30;1.20;;;;;;;-1.09;70.06;103005.78;4873435;29;20028;-78
2021/04/16 04:15:34;;;;;;;5.53;0.98;;;;;;;-0.97;69.71;103016.66;4880546;29;20044;-77
2021/04/16 04:17:59;;;;;;;3.25;1.02;;;;;;;-1.10;69.59;102964.44;4866778;29;20496;-79
2021/04/16 04:20:30;;;;;;;3.05;1.08;;;;;;;-0.53;68.59;103013.75;4882137;29;20036;-77
2021/04/16 04:22:58;;;;;;;3.58;0.95;;;;;;;-0.25;67.83;103009.78;4883228;29;20108;-78
2021/04/16 04:25:26;;;;;;;3.97;0.90;;;;;;;0.09;67.32;103010.75;4867107;29;20029;-77
2021/04/16 04:27:53;;;;;;;2.83;1.17;;;;;;;0.43;66.37;103021.38;4882731;29;20416;-77
2021/04/16 04:30:24;;;;;;;3.95;1.10;;;;;;;0.81;65.28;103009.72;4863592;29;20056;-77
2021/04/16 04:32:49;;;;;;;5.43;1.15;;;;;;;1.00;64.15;102991.88;4877741;29;20072;-77
2021/04/16 04:35:15;;;;;;;2.28;1.08;;;;;;;1.36;63.90;102999.63;4885885;29;20060;-76
2021/04/16 04:37:42;;;;;;;3.90;1.00;;;;;;;1.66;63.23;103006.81;4886107;29;20048;-77
2021/04/16 04:40:09;;;;;;;5.80;1.05;;;;;;;2.11;61.90;103013.91;4881711;29;20029;-77
2021/04/16 04:42:35;;;;;;;3.53;1.00;;;;;;;2.48;61.02;103002.91;4879673;29;20041;-77
2021/04/16 04:45:03;;;;;;;4.85;1.10;;;;;;;2.65;59.92;102992.13;4878083;29;20036;-77
2021/04/16 04:47:28;;;;;;;3.40;1.25;;;;;;;2.95;59.50;103007.13;4888318;29;20491;-77
2021/04/16 04:49:54;;;;;;;4.50;0.93;;;;;;;3.18;59.02;103005.66;4883286;29;20044;-77
2021/04/16 04:52:31;;;;;;;2.97;1.10;;;;;;;3.55;58.32;103022.81;4897006;29;20028;-77
2021/04/16 04:54:58;;;;;;;2.42;1.00;;;;;;;3.91;56.71;103010.75;4880449;29;20025;-77
2021/04/16 04:57:26;;;;;;;4.30;0.90;;;;;;;4.02;56.42;103008.19;4882553;29;20039;-78
2021/04/16 04:59:54;;;;;;;4.78;1.23;;;;;;;4.26;56.37;103007.50;4891554;29;20490;-77
2021/04/16 05:02:22;;;;;;;3.92;1.00;;;;;;;4.54;55.29;103004.69;4881237;29;20051;-77
2021/04/16 05:04:49;;;;;;;3.10;1.20;;;;;;;4.37;55.60;102992.50;4880688;29;20025;-77
2021/04/16 05:07:15;;;;;;;4.72;1.17;;;;;;;4.44;54.83;103011.59;4878200;29;20029;-77
2021/04/16 05:09:40;;;;;;;2.40;1.20;;;;;;;4.16;55.58;103005.47;4896572;29;20091;-77
2021/04/16 05:12:07;;;;;;;2.40;1.10;;;;;;;4.26;55.31;103005.69;4895308;29;20036;-78
2021/04/16 05:14:32;;;;;;;2.45;1.20;;;;;;;4.29;54.70;102991.31;4889707;29;20067;-77
2021/04/16 05:16:58;;;;;;;6.97;1.65;;;;;;;4.83;53.70;102997.28;4887827;29;20064;-77
2021/04/16 05:19:24;;;;;;;2.88;1.13;;;;;;;5.30;52.74;103002.91;4878219;29;20036;-77
2021/04/16 05:21:53;;;;;;;3.30;0.93;;;;;;;5.33;52.54;102998.22;4879738;29;20041;-77
2021/04/16 05:24:18;;;;;;;3.75;1.00;;;;;;;5.56;51.84;103004.53;4896243;29;20024;-77
2021/04/16 05:26:44;;;;;;;3.53;1.20;;;;;;;5.52;52.18;103007.53;4879828;29;20199;-78
2021/04/16 05:29:10;;;;;;;2.65;1.10;;;;;;;5.59;51.02;103009.63;4876822;29;20028;-78
2021/04/16 05:31:35;;;;;;;3.80;1.20;;;;;;;5.29;51.68;102986.03;4899799;29;20039;-78
2021/04/16 05:34:02;;;;;;;3.45;1.10;;;;;;;4.26;54.94;103000.38;4901056;29;20032;-78
2021/04/16 05:36:28;;;;;;;2.42;1.13;;;;;;;3.78;56.90;103001.84;4866572;29;20055;-78
2021/04/16 05:38:54;;;;;;;2.83;1.05;;;;;;;3.28;57.98;102983.72;4886623;29;20044;-78
2021/04/16 05:41:19;;;;;;;2.95;1.00;;;;;;;3.43;58.04;103000.50;4880961;29;20123;-79
2021/04/16 05:43:45;;;;;;;3.22;0.93;;;;;;;3.29;58.45;102998.72;4900405;29;20029;-78
2021/04/16 05:46:12;;;;;;;1.92;1.10;;;;;;;3.42;58.19;103009.44;4899894;29;20502;-79
2021/04/16 05:48:38;;;;;;;3.33;0.98;;;;;;;3.52;58.18;103007.06;4879799;29;20459;-79
2021/04/16 05:51:04;;;;;;;2.83;1.00;;;;;;;3.35;58.08;102962.06;4888033;29;20039;-80
2021/04/16 05:53:29;;;;;;;2.33;0.90;;;;;;;3.64;58.25;103008.94;4901426;29;20503;-79
2021/04/16 05:55:55;;;;;;;2.63;0.80;;;;;;;3.68;57.95;102999.78;4900748;29;20153;-80
2021/04/16 05:58:21;;;;;;;2.78;1.13;;;;;;;3.62;57.95;102992.19;4903724;29;20051;-79
2021/04/16 06:00:46;;;;;;;5.47;0.95;;;;;;;3.61;58.07;103000.25;4897865;29;20040;-79
2021/04/16 06:03:12;;;;;;;3.03;1.00;;;;;;;3.67;57.80;103002.53;4902142;29;20356;-78
2021/04/16 06:05:37;;;;;;;8.18;1.15;;;;;;;3.65;58.00;102993.81;4881099;29;20063;-78
2021/04/16 06:08:04;;;;;;;3.65;1.00;;;;;;;3.80;58.02;103010.56;4896702;29;20640;-79
2021/04/16 06:10:30;;;;;;;2.80;0.98;;;;;;;3.86;58.36;103012.84;4895187;29;20021;-79
2021/04/16 06:12:55;;;;;;;4.07;0.90;;;;;;;4.02;57.89;103004.69;4877521;29;20103;-79
2021/04/16 06:15:24;;;;;;;3.42;0.85;;;;;;;4.04;58.26;103016.97;4893964;29;20025;-79
2021/04/16 06:17:49;;;;;;;2.58;0.93;;;;;;;4.05;57.46;103018.66;4878111;29;20032;-79
2021/04/16 06:20:18;;;;;;;3.35;1.10;;;;;;;3.93;58.40;103008.81;4896783;29;20055;-78
2021/04/16 06:22:46;;;;;;;5.82;1.10;;;;;;;4.06;58.54;103020.34;4894686;29;20037;-79
2021/04/16 06:25:14;;;;;;;3.60;0.90;;;;;;;4.13;58.02;103018.13;4877008;29;20028;-79
2021/04/16 06:27:40;;;;;;;2.65;1.02;;;;;;;4.11;58.34;103023.59;4893966;29;20032;-81
2021/04/16 06:30:07;;;;;;;3.10;0.90;;;;;;;4.13;58.55;103003.00;4891891;29;20036;-78
2021/04/16 06:32:32;;;;;;;1.83;0.60;;;;;;;4.20;57.76;103001.63;4893489;29;20037;-78
2021/04/16 06:34:59;;;;;;;3.08;0.73;;;;;;;4.21;56.99;103018.50;4899054;29;20041;-78
2021/04/16 06:37:24;;;;;;;1.75;0.80;;;;;;;4.36;57.51;103012.09;4882948;29;20042;-78
2021/04/16 06:39:50;;;;;;;2.55;0.90;;;;;;;4.38;57.13;103028.88;4897875;29;20120;-78
2021/04/16 06:42:28;;;;;;;4.07;0.90;;;;;;;4.32;57.49;103023.94;4898441;29;20033;-79
2021/04/16 06:44:57;;;;;;;2.60;0.90;;;;;;;4.38;58.05;103023.53;4894403;29;20019;-78
2021/04/16 06:47:34;;;;;;;3.72;1.15;;;;;;;4.32;57.61;103015.09;4890658;29;20072;-78
2021/04/16 06:50:00;;;;;;;3.47;1.00;;;;;;;4.29;57.97;103020.63;4881421;29;20071;-78
2021/04/16 06:52:34;;;;;;;4.93;0.93;;;;;;;4.40;58.63;103015.41;4894476;29;20111;-78
2021/04/16 06:55:11;;;;;;;2.22;0.80;;;;;;;4.52;58.48;103006.59;4892767;29;20399;-78
2021/04/16 06:57:50;;;;;;;3.40;1.23;;;;;;;4.47;58.71;103025.56;4890708;29;20024;-78
2021/04/16 07:00:37;;;;;;;2.95;1.00;;;;;;;4.55;59.00;103024.19;4891503;29;20050;-79
2021/04/16 07:03:29;;;;;;;2.50;0.90;;;;;;;4.66;58.27;103022.47;4892332;29;20032;-76
2021/04/16 07:06:05;;;;;;;2.97;0.95;;;;;;;4.62;58.17;103001.47;4893165;29;20037;-80
2021/04/16 07:08:35;;;;;;;2.88;0.95;;;;;;;5.02;57.44;103018.22;4876136;29;20068;-76
2021/04/16 07:11:06;;;;;;;4.35;1.13;;;;;;;5.08;57.63;103000.91;4892932;29;20036;-76
2021/04/16 07:13:39;;;;;;;4.13;1.27;;;;;;;5.18;57.47;103010.81;4895762;29;20032;-78
2021/04/16 07:16:07;;;;;;;2.15;0.98;;;;;;;5.23;57.10;103005.19;4897909;29;20363;-78
2021/04/16 07:18:37;;;;;;;3.45;0.90;;;;;;;5.33;56.81;102997.31;4898608;29;20025;-77
2021/04/16 07:21:03;;;;;;;4.60;1.23;;;;;;;5.27;56.43;102993.31;4882472;29;20099;-78
2021/04/16 07:23:29;;;;;;;5.35;1.20;;;;;;;5.34;56.47;103015.06;4893726;29;20024;-77
2021/04/16 07:26:08;;;;;;;5.20;1.17;;;;;;;5.50;57.12;103013.00;4896086;29;20107;-77
2021/04/16 07:28:50;;;;;;;4.47;1.50;;;;;;;5.59;56.89;103001.63;4898342;29;20040;-78
2021/04/16 07:31:53;;;;;;;4.50;0.85;;;;;;;5.48;57.02;103012.25;4897885;29;20033;-79
2021/04/16 07:34:28;;;;;;;6.60;1.27;;;;;;;5.39;56.50;103018.25;4886838;29;20454;-80
2021/04/16 07:36:55;;;;;;;4.18;0.90;;;;;;;5.41;56.70;103016.34;4902309;29;20096;-78
2021/04/16 07:39:32;;;;;;;3.05;1.00;;;;;;;5.33;57.04;103016.91;4898362;29;20048;-77
2021/04/16 07:42:09;;;;;;;2.35;0.90;;;;;;;5.49;56.46;103011.28;4898378;29;20424;-77
2021/04/16 07:44:39;;;;;;;1.70;0.80;;;;;;;5.63;56.47;102983.59;4888676;29;20096;-78
2021/04/16 07:47:15;;;;;;;4.15;1.15;;;;;;;5.84;55.52;103005.16;4893817;29;20123;-77
2021/04/16 07:50:02;;;;;;;6.03;1.27;;;;;;;5.70;54.89;102982.16;4896511;29;20025;-77
2021/04/16 07:52:57;;;;;;;3.63;1.02;;;;;;;5.82;54.16;102975.03;4896495;29;20204;-78
2021/04/16 07:55:41;;;;;;;1.55;0.90;;;;;;;6.07;53.57;102998.13;4888897;29;20029;-77
2021/04/16 07:58:13;;;;;;;3.70;1.20;;;;;;;6.18;52.57;102995.50;4887626;29;20034;-77
2021/04/16 08:00:44;;;;;;;4.30;1.10;;;;;;;6.31;53.01;102995.41;4893900;29;20040;-77
2021/04/16 08:03:17;;;;;;;2.80;0.85;;;;;;;6.45;52.39;102992.53;4891205;29;20056;-77
2021/04/16 08:05:46;;;;;;;3.33;1.13;;;;;;;6.68;51.52;102989.88;4882588;29;20044;-77
2021/04/16 08:08:17;;;;;;;4.00;1.20;;;;;;;6.60;51.60;102990.50;4890364;29;20474;-77
2021/04/16 08:10:45;;;;;;;3.25;0.82;;;;;;;6.68;51.28;102990.72;4887249;29;20044;-77
2021/04/16 08:13:18;;;;;;;2.53;0.88;;;;;;;6.56;50.07;102981.88;4873615;29;20036;-77
2021/04/16 08:15:44;;;;;;;2.05;0.85;;;;;;;6.78;50.41;102999.75;4895620;29;20475;-77
2021/04/16 08:18:31;;;;;;;2.55;1.05;;;;;;;6.77;50.51;102991.84;4901240;29;20127;-77
2021/04/16 08:21:08;;;;;;;3.70;0.80;;;;;;;6.96;50.83;103002.81;4882707;29;20107;-77
2021/04/16 08:23:59;;;;;;;2.38;0.90;;;;;;;6.74;51.55;102995.63;4903901;29;20004;-78
2021/04/16 08:26:29;;;;;;;2.45;0.90;;;;;;;6.80;51.57;102999.63;4900350;29;20120;-77
2021/04/16 08:29:11;;;;;;;5.20;1.00;;;;;;;6.97;51.58;103007.19;4883632;29;20035;-78
2021/04/16 08:31:52;;;;;;;2.45;0.90;;;;;;;7.07;51.13;102994.78;4900364;29;20035;-78
2021/04/16 08:34:31;;;;;;;4.10;0.95;;;;;;;6.91;51.06;103005.00;4883464;29;20060;-77
2021/04/16 08:36:58;;;;;;;4.47;1.20;;;;;;;6.92;50.92;102979.06;4905383;29;20115;-77
2021/04/16 08:39:42;;;;;;;4.95;1.13;;;;;;;7.05;49.75;103003.88;4901551;29;20036;-77
2021/04/16 08:42:14;;;;;;;4.85;0.93;;;;;;;7.17;49.82;103005.59;4880002;29;20486;-77
2021/04/16 08:45:06;;;;;;;4.38;0.93;;;;;;;7.28;49.06;102992.22;4884552;29;20021;-77
2021/04/16 08:47:50;;;;;;;2.72;1.02;;;;;;;7.30;47.99;102979.53;4890134;29;20372;-77
2021/04/16 08:50:19;;;;;;;3.25;1.00;;;;;;;7.45;47.82;103003.34;4895973;29;20021;-77
2021/04/16 08:52:48;;;;;;;3.38;0.90;;;;;;;7.36;49.00;102966.63;4880980;29;20526;-77
2021/04/16 08:55:26;;;;;;;3.80;1.00;;;;;;;7.47;48.27;102974.63;4877786;29;20033;-77
2021/04/16 08:57:53;;;;;;;4.00;1.20;;;;;;;7.44;48.78;102969.53;4896587;29;20044;-77
2021/04/16 09:00:37;;;;;;;3.92;1.48;;;;;;;7.46;48.46;102962.22;4897618;29;20096;-76
2021/04/16 09:03:12;;;;;;;4.95;1.00;;;;;;;7.68;47.50;102977.38;4898221;29;20033;-79
2021/04/16 09:05:51;;;;;;;3.83;1.20;;;;;;;7.42;47.65;102940.19;4896203;29;20451;-77
2021/04/16 09:08:35;;;;;;;1.75;0.90;;;;;;;7.72;47.89;102981.53;4896974;29;20055;-79
2021/04/16 09:11:03;;;;;;;3.95;0.98;;;;;;;7.63;47.32;102955.47;4899189;29;20042;-77
2021/04/16 09:13:50;;;;;;;2.92;1.08;;;;;;;7.61;47.16;102965.47;4897396;29;20032;-79
2021/04/16 09:16:16;;;;;;;2.80;1.05;;;;;;;7.69;47.36;102953.13;4880867;29;20024;-77
2021/04/16 09:19:13;;;;;;;5.63;1.80;;;;;;;7.66;46.86;102941.81;4894267;29;20540;-77
2021/04/16 09:22:09;;;;;;;3.50;1.23;;;;;;;7.94;46.69;102951.91;4876925;29;20028;-77
2021/04/16 09:24:58;;;;;;;3.20;1.05;;;;;;;8.08;44.92;102947.22;4894557;29;20131;-77
2021/04/16 09:27:37;;;;;;;4.90;1.17;;;;;;;8.15;46.12;102945.75;4892542;29;20474;-77
2021/04/16 09:30:24;;;;;;;3.83;1.00;;;;;;;8.15;45.83;102943.06;4895321;29;20044;-77
2021/04/16 09:33:12;;;;;;;5.07;1.13;;;;;;;8.12;45.13;102935.28;4894576;29;20036;-79
2021/04/16 09:35:37;;;;;;;4.70;1.17;;;;;;;8.23;44.51;102930.69;4893002;29;20024;-76
2021/04/16 09:38:21;;;;;;;6.18;1.48;;;;;;;8.52;44.61;102929.19;4892609;29;20096;-76
2021/04/16 09:41:07;;;;;;;7.30;1.27;;;;;;;8.33;43.51;102916.47;4886169;29;20036;-77
2021/04/16 09:43:34;;;;;;;;;;;;;;;8.45;45.09;102921.66;4887687;29;20485;-77
2021/04/16 09:46:00;;;;;;;4.18;1.00;;;;;;;8.45;44.36;102910.94;4893916;29;19962;-77
2021/04/16 09:48:47;;;;;;;3.28;1.20;;;;;;;8.29;43.66;102918.59;4878778;29;20064;-77
2021/04/16 09:51:15;;;;;;;2.78;1.10;;;;;;;8.54;43.04;102924.53;4894583;29;20028;-77
2021/04/16 09:54:03;;;;;;;2.92;1.05;;;;;;;8.65;41.62;102906.50;4892988;29;20146;-77
2021/04/16 09:56:29;;;;;;;3.33;1.15;;;;;;;8.84;41.84;102908.44;4887294;29;20107;-76
2021/04/16 09:59:00;;;;;;;2.75;0.93;;;;;;;8.98;39.10;102917.09;4893776;29;20104;-76
2021/04/16 10:01:26;;;;;;;2.25;0.90;;;;;;;9.01;39.07;102909.59;4893987;29;20021;-76
2021/04/16 10:04:07;;;;;;;1.73;0.77;;;;;;;9.23;38.54;102913.88;4886508;29;20356;-76
2021/04/16 10:06:39;;;;;;;3.75;0.85;;;;;;;9.31;39.20;102906.00;4885950;29;20083;-76
2021/04/16 10:09:25;;;;;;;2.33;0.80;;;;;;;9.36;38.53;102909.09;4893012;29;20203;-77
2021/04/16 10:11:54;;;;;;;2.60;0.80;;;;;;;9.40;38.43;102889.03;4895715;29;20028;-76
2021/04/16 10:14:34;;;;;;;2.33;0.90;;;;;;;9.52;39.16;102897.81;4891967;29;20028;-76
2021/04/16 10:17:05;;;;;;;4.68;0.95;;;;;;;9.27;36.85;102883.09;4891596;29;20112;-79
2021/04/16 10:20:09;;;;;;;4.45;0.75;;;;;;;9.37;37.19;102893.81;4887780;29;20040;-76
2021/04/16 10:22:37;;;;;;;4.75;0.93;;;;;;;9.65;37.47;102887.63;4897434;29;20039;-76
2021/04/16 10:27:49;;;;;;;4.30;1.15;;;;;;;9.61;38.11;102874.63;4893947;29;20107;-76
2021/04/16 12:41:41;;;;;;;2.42;0.52;;;;;;;11.35;34.43;102772.50;4882839;29;20375;-77
2021/04/16 12:44:18;;;;;;;3.17;0.60;;;;;;;11.15;34.17;102759.22;4897636;29;20028;-77
2021/04/16 12:46:44;;;;;;;1.27;0.60;;;;;;;11.20;33.79;102762.31;4900392;29;20124;-77
2021/04/16 12:49:09;;;;;;;2.33;0.65;;;;;;;11.27;33.89;102759.81;4880182;29;20168;-77
2021/04/16 12:51:35;;;;;;;1.48;0.60;;;;;;;11.36;34.00;102760.75;4894549;29;20032;-77
2021/04/16 12:54:00;;;;;;;1.75;0.77;;;;;;;11.59;34.27;102763.75;4896981;29;20131;-78
2021/04/16 12:56:41;;;;;;;1.25;0.50;;;;;;;11.66;33.83;102768.38;4864921;29;21308;-77
2021/04/16 12:59:12;;;;;;;3.25;0.70;;;;;;;11.50;34.77;102773.66;4880436;29;20356;-77
2021/04/16 13:01:37;;;;;;;1.77;0.60;;;;;;;11.49;35.01;102758.50;4895372;29;20032;-80
2021/04/16 13:04:03;;;;;;;1.55;0.60;;;;;;;11.36;34.67;102713.09;4901788;29;20119;-80
2021/04/16 13:06:39;;;;;;;3.45;0.55;;;;;;;11.42;32.90;102730.44;4898305;29;20040;-78
2021/04/16 13:09:10;;;;;;;4.22;1.10;;;;;;;11.65;35.94;102750.50;4883409;29;20044;-78
2021/04/16 13:11:36;;;;;;;4.68;1.05;;;;;;;11.69;36.43;102773.47;4864797;29;20051;-77
2021/04/16 13:14:03;;;;;;;4.35;0.73;;;;;;;11.35;35.74;102726.69;4893820;29;20606;-79
2021/04/16 13:16:29;;;;;;;3.45;0.75;;;;;;;11.56;36.77;102756.03;4878701;29;20037;-81
2021/04/16 13:18:57;;;;;;;2.17;0.73;;;;;;;11.42;36.87;102744.81;4877178;29;20047;-77
2021/04/16 13:21:35;;;;;;;2.63;0.90;;;;;;;11.28;37.88;102772.28;4880994;29;20203;-79
2021/04/16 13:24:02;;;;;;;5.22;1.13;;;;;;;11.29;37.93;102737.13;4894569;29;20016;-79
2021/04/16 13:26:28;;;;;;;4.35;0.80;;;;;;;11.39;36.29;102752.31;4894802;29;20228;-78
2021/04/16 13:28:54;;;;;;;3.08;0.98;;;;;;;11.44;37.99;102758.94;4896394;29;20128;-78
2021/04/16 13:31:20;;;;;;;2.50;0.98;;;;;;;11.59;37.06;102736.78;4881843;29;20032;-78
2021/04/16 13:33:49;;;;;;;3.20;0.80;;;;;;;11.30;36.71;102700.22;4881624;29;20407;-79
2021/04/16 13:36:23;;;;;;;2.15;0.65;;;;;;;11.49;37.22;102742.31;4895183;29;20169;-78
2021/04/16 13:38:50;;;;;;;2.10;0.80;;;;;;;11.47;37.86;102744.31;4898091;29;20044;-79
2021/04/16 13:41:16;;;;;;;2.35;0.80;;;;;;;11.42;38.06;102717.84;4896515;29;20060;-79
2021/04/16 13:43:42;;;;;;;4.78;0.90;;;;;;;11.52;37.51;102723.97;4872490;29;20035;-79
2021/04/16 13:46:15;;;;;;;5.25;0.85;;;;;;;11.52;38.87;102728.50;4898321;29;20069;-78
2021/04/16 13:48:43;;;;;;;3.20;0.70;;;;;;;11.56;37.91;102727.19;4881036;29;20039;-78
2021/04/16 13:51:10;;;;;;;3.42;0.70;;;;;;;11.64;38.01;102727.25;4898983;29;20055;-80
2021/04/16 13:53:36;;;;;;;2.13;0.60;;;;;;;11.64;37.27;102731.78;4865496;29;20188;-78
2021/04/16 13:56:01;;;;;;;2.88;0.70;;;;;;;11.74;37.25;102713.66;4892025;29;20111;-78